sensor_id;sensor_type;location;lat;lon;timestamp;temperature;humidity
12446;DHT22;6287;50.984;7.022;2022-08-19T00:01:53;19.20;99.90
12446;DHT22;6287;50.984;7.022;2022-08-19T00:04:21;19.10;99.90
12446;DHT22;6287;50.984;7.022;2022-08-19T00:06:47;19.10;99.90
12446;DHT22;6287;50.984;7.022;2022-08-19T00:09:18;19.10;99.90
12446;DHT22;6287;50.984;7.022;2022-08-19T00:11:45;19.10;99.90
12446;DHT22;6287;50.984;7.022;2022-08-19T00:14:15;19.10;99.90
12446;DHT22;6287;50.984;7.022;2022-08-19T00:16:45;19.00;99.90
12446;DHT22;6287;50.984;7.022;2022-08-19T00:19:15;19.00;99.90
12446;DHT22;6287;50.984;7.022;2022-08-19T00:21:44;19.00;99.90
12446;DHT22;6287;50.984;7.022;2022-08-19T00:24:11;19.00;99.90
12446;DHT22;6287;50.984;7.022;2022-08-19T00:26:40;18.90;99.90
12446;DHT22;6287;50.984;7.022;2022-08-19T00:29:09;18.90;99.90
12446;DHT22;6287;50.984;7.022;2022-08-19T00:31:35;18.90;99.90
12446;DHT22;6287;50.984;7.022;2022-08-19T00:34:06;18.90;99.90
12446;DHT22;6287;50.984;7.022;2022-08-19T00:36:34;18.90;99.90
12446;DHT22;6287;50.984;7.022;2022-08-19T00:39:00;18.80;99.90
12446;DHT22;6287;50.984;7.022;2022-08-19T00:41:28;18.80;99.90
12446;DHT22;6287;50.984;7.022;2022-08-19T00:44:15;18.70;99.90
12446;DHT22;6287;50.984;7.022;2022-08-19T00:46:43;18.70;99.90
12446;DHT22;6287;50.984;7.022;2022-08-19T00:49:20;18.70;99.90
12446;DHT22;6287;50.984;7.022;2022-08-19T00:51:53;18.70;99.90
12446;DHT22;6287;50.984;7.022;2022-08-19T00:54:21;18.50;99.90
12446;DHT22;6287;50.984;7.022;2022-08-19T00:56:53;18.50;99.90
12446;DHT22;6287;50.984;7.022;2022-08-19T00:59:21;18.50;99.90
12446;DHT22;6287;50.984;7.022;2022-08-19T01:01:51;18.40;99.90
12446;DHT22;6287;50.984;7.022;2022-08-19T01:04:17;18.40;99.90
12446;DHT22;6287;50.984;7.022;2022-08-19T01:06:44;18.40;99.90
12446;DHT22;6287;50.984;7.022;2022-08-19T01:09:13;18.40;99.90
12446;DHT22;6287;50.984;7.022;2022-08-19T01:11:41;18.40;99.90
12446;DHT22;6287;50.984;7.022;2022-08-19T01:14:12;18.30;99.90
12446;DHT22;6287;50.984;7.022;2022-08-19T01:16:40;18.30;99.90
12446;DHT22;6287;50.984;7.022;2022-08-19T01:19:17;18.30;99.90
12446;DHT22;6287;50.984;7.022;2022-08-19T01:24:44;18.20;99.90
12446;DHT22;6287;50.984;7.022;2022-08-19T01:27:09;18.10;99.90
12446;DHT22;6287;50.984;7.022;2022-08-19T01:29:39;18.10;99.90
12446;DHT22;6287;50.984;7.022;2022-08-19T01:32:08;18.10;99.90
12446;DHT22;6287;50.984;7.022;2022-08-19T01:34:34;18.10;99.90
12446;DHT22;6287;50.984;7.022;2022-08-19T01:37:00;18.10;99.90
12446;DHT22;6287;50.984;7.022;2022-08-19T01:39:32;18.00;99.90
12446;DHT22;6287;50.984;7.022;2022-08-19T01:41:57;18.00;99.90
12446;DHT22;6287;50.984;7.022;2022-08-19T01:44:23;18.00;99.90
12446;DHT22;6287;50.984;7.022;2022-08-19T01:46:55;18.00;99.90
12446;DHT22;6287;50.984;7.022;2022-08-19T01:49:25;17.90;99.90
12446;DHT22;6287;50.984;7.022;2022-08-19T01:51:52;17.90;99.90
12446;DHT22;6287;50.984;7.022;2022-08-19T01:54:21;17.90;99.90
12446;DHT22;6287;50.984;7.022;2022-08-19T01:56:56;17.90;99.90
12446;DHT22;6287;50.984;7.022;2022-08-19T01:59:24;17.80;99.90
12446;DHT22;6287;50.984;7.022;2022-08-19T02:01:52;17.80;99.90
12446;DHT22;6287;50.984;7.022;2022-08-19T02:04:17;17.80;99.90
12446;DHT22;6287;50.984;7.022;2022-08-19T02:06:43;17.80;99.90
12446;DHT22;6287;50.984;7.022;2022-08-19T02:09:09;17.70;99.90
12446;DHT22;6287;50.984;7.022;2022-08-19T02:11:36;17.70;99.90
12446;DHT22;6287;50.984;7.022;2022-08-19T02:14:05;17.70;99.90
12446;DHT22;6287;50.984;7.022;2022-08-19T02:16:32;17.70;99.90
12446;DHT22;6287;50.984;7.022;2022-08-19T02:18:58;17.60;99.90
12446;DHT22;6287;50.984;7.022;2022-08-19T02:21:26;17.60;99.90
12446;DHT22;6287;50.984;7.022;2022-08-19T02:23:54;17.70;99.90
12446;DHT22;6287;50.984;7.022;2022-08-19T02:26:22;17.60;99.90
12446;DHT22;6287;50.984;7.022;2022-08-19T02:28:52;17.60;99.90
12446;DHT22;6287;50.984;7.022;2022-08-19T02:31:20;17.60;99.90
12446;DHT22;6287;50.984;7.022;2022-08-19T02:33:47;17.60;99.90
12446;DHT22;6287;50.984;7.022;2022-08-19T02:36:16;17.60;99.90
12446;DHT22;6287;50.984;7.022;2022-08-19T02:38:45;17.60;99.90
12446;DHT22;6287;50.984;7.022;2022-08-19T02:41:19;17.60;99.90
12446;DHT22;6287;50.984;7.022;2022-08-19T02:43:45;17.60;99.90
12446;DHT22;6287;50.984;7.022;2022-08-19T02:48:50;17.60;99.90
12446;DHT22;6287;50.984;7.022;2022-08-19T02:51:25;17.60;99.90
12446;DHT22;6287;50.984;7.022;2022-08-19T02:53:51;17.50;99.90
12446;DHT22;6287;50.984;7.022;2022-08-19T02:56:17;17.50;99.90
12446;DHT22;6287;50.984;7.022;2022-08-19T02:58:46;17.50;99.90
12446;DHT22;6287;50.984;7.022;2022-08-19T03:01:29;17.50;99.90
12446;DHT22;6287;50.984;7.022;2022-08-19T03:03:56;17.50;99.90
12446;DHT22;6287;50.984;7.022;2022-08-19T03:06:22;17.50;99.90
12446;DHT22;6287;50.984;7.022;2022-08-19T03:08:50;17.50;99.90
12446;DHT22;6287;50.984;7.022;2022-08-19T03:11:28;17.50;99.90
12446;DHT22;6287;50.984;7.022;2022-08-19T03:13:54;17.50;99.90
12446;DHT22;6287;50.984;7.022;2022-08-19T03:16:22;17.40;99.90
12446;DHT22;6287;50.984;7.022;2022-08-19T03:18:51;17.40;99.90
12446;DHT22;6287;50.984;7.022;2022-08-19T03:21:23;17.50;99.90
12446;DHT22;6287;50.984;7.022;2022-08-19T03:23:53;17.50;99.90
12446;DHT22;6287;50.984;7.022;2022-08-19T03:26:19;17.40;99.90
12446;DHT22;6287;50.984;7.022;2022-08-19T03:28:45;17.50;99.90
12446;DHT22;6287;50.984;7.022;2022-08-19T03:31:17;17.60;99.90
12446;DHT22;6287;50.984;7.022;2022-08-19T03:33:46;17.50;99.90
12446;DHT22;6287;50.984;7.022;2022-08-19T03:36:15;17.50;99.90
12446;DHT22;6287;50.984;7.022;2022-08-19T03:38:44;17.40;99.90
12446;DHT22;6287;50.984;7.022;2022-08-19T03:41:22;17.40;99.90
12446;DHT22;6287;50.984;7.022;2022-08-19T03:43:48;17.40;99.90
12446;DHT22;6287;50.984;7.022;2022-08-19T03:46:19;17.40;99.90
12446;DHT22;6287;50.984;7.022;2022-08-19T03:48:50;17.40;99.90
12446;DHT22;6287;50.984;7.022;2022-08-19T03:51:24;17.30;99.90
12446;DHT22;6287;50.984;7.022;2022-08-19T03:53:51;17.30;99.90
12446;DHT22;6287;50.984;7.022;2022-08-19T03:56:20;17.30;99.90
12446;DHT22;6287;50.984;7.022;2022-08-19T03:58:45;17.30;99.90
12446;DHT22;6287;50.984;7.022;2022-08-19T04:01:15;17.20;99.90
12446;DHT22;6287;50.984;7.022;2022-08-19T04:03:45;17.20;99.90
12446;DHT22;6287;50.984;7.022;2022-08-19T04:06:23;17.20;99.90
12446;DHT22;6287;50.984;7.022;2022-08-19T04:08:53;17.20;99.90
12446;DHT22;6287;50.984;7.022;2022-08-19T04:11:28;17.20;99.90
12446;DHT22;6287;50.984;7.022;2022-08-19T04:13:54;17.20;99.90
12446;DHT22;6287;50.984;7.022;2022-08-19T04:16:21;17.20;99.90
12446;DHT22;6287;50.984;7.022;2022-08-19T04:18:48;17.20;99.90
12446;DHT22;6287;50.984;7.022;2022-08-19T04:21:21;17.20;99.90
12446;DHT22;6287;50.984;7.022;2022-08-19T04:23:47;17.20;99.90
12446;DHT22;6287;50.984;7.022;2022-08-19T04:26:26;17.20;99.90
12446;DHT22;6287;50.984;7.022;2022-08-19T04:28:52;17.20;99.90
12446;DHT22;6287;50.984;7.022;2022-08-19T04:31:24;17.20;99.90
12446;DHT22;6287;50.984;7.022;2022-08-19T04:33:55;17.30;99.90
12446;DHT22;6287;50.984;7.022;2022-08-19T04:36:26;17.30;99.90
12446;DHT22;6287;50.984;7.022;2022-08-19T04:38:55;17.30;99.90
12446;DHT22;6287;50.984;7.022;2022-08-19T04:41:21;17.30;99.90
12446;DHT22;6287;50.984;7.022;2022-08-19T04:44:06;17.30;99.90
12446;DHT22;6287;50.984;7.022;2022-08-19T04:46:34;17.30;99.90
12446;DHT22;6287;50.984;7.022;2022-08-19T04:49:01;17.40;99.90
12446;DHT22;6287;50.984;7.022;2022-08-19T04:51:30;17.40;99.90
12446;DHT22;6287;50.984;7.022;2022-08-19T04:53:59;17.40;99.90
12446;DHT22;6287;50.984;7.022;2022-08-19T04:56:27;17.50;99.90
12446;DHT22;6287;50.984;7.022;2022-08-19T04:58:54;17.50;99.90
12446;DHT22;6287;50.984;7.022;2022-08-19T05:01:26;17.50;99.90
12446;DHT22;6287;50.984;7.022;2022-08-19T05:03:57;17.60;99.90
12446;DHT22;6287;50.984;7.022;2022-08-19T05:06:23;17.60;99.90
12446;DHT22;6287;50.984;7.022;2022-08-19T05:08:53;17.70;99.90
12446;DHT22;6287;50.984;7.022;2022-08-19T05:11:26;17.70;99.90
12446;DHT22;6287;50.984;7.022;2022-08-19T05:13:52;17.80;99.90
12446;DHT22;6287;50.984;7.022;2022-08-19T05:16:20;17.90;99.90
12446;DHT22;6287;50.984;7.022;2022-08-19T05:18:46;17.90;99.90
12446;DHT22;6287;50.984;7.022;2022-08-19T05:21:32;18.00;99.90
12446;DHT22;6287;50.984;7.022;2022-08-19T05:24:17;18.00;99.90
12446;DHT22;6287;50.984;7.022;2022-08-19T05:26:48;18.00;99.90
12446;DHT22;6287;50.984;7.022;2022-08-19T05:29:20;18.10;99.90
12446;DHT22;6287;50.984;7.022;2022-08-19T05:31:47;18.10;99.90
12446;DHT22;6287;50.984;7.022;2022-08-19T05:34:15;18.20;99.90
12446;DHT22;6287;50.984;7.022;2022-08-19T05:36:42;18.20;99.90
12446;DHT22;6287;50.984;7.022;2022-08-19T05:39:12;18.20;99.90
12446;DHT22;6287;50.984;7.022;2022-08-19T05:41:48;18.30;99.90
12446;DHT22;6287;50.984;7.022;2022-08-19T05:44:17;18.40;99.90
12446;DHT22;6287;50.984;7.022;2022-08-19T05:46:44;18.40;99.90
12446;DHT22;6287;50.984;7.022;2022-08-19T05:49:13;18.50;99.90
12446;DHT22;6287;50.984;7.022;2022-08-19T05:51:39;18.50;99.90
12446;DHT22;6287;50.984;7.022;2022-08-19T05:54:05;18.60;99.90
12446;DHT22;6287;50.984;7.022;2022-08-19T05:56:32;18.60;99.90
12446;DHT22;6287;50.984;7.022;2022-08-19T05:59:02;18.70;99.90
12446;DHT22;6287;50.984;7.022;2022-08-19T06:01:30;18.70;99.90
12446;DHT22;6287;50.984;7.022;2022-08-19T06:03:55;18.80;99.90
12446;DHT22;6287;50.984;7.022;2022-08-19T06:06:21;18.80;99.90
12446;DHT22;6287;50.984;7.022;2022-08-19T06:08:47;18.90;99.90
12446;DHT22;6287;50.984;7.022;2022-08-19T06:13:45;19.10;99.90
12446;DHT22;6287;50.984;7.022;2022-08-19T06:16:13;19.10;99.90
12446;DHT22;6287;50.984;7.022;2022-08-19T06:18:48;19.20;99.90
12446;DHT22;6287;50.984;7.022;2022-08-19T06:21:14;19.40;99.90
12446;DHT22;6287;50.984;7.022;2022-08-19T06:23:39;19.50;99.90
12446;DHT22;6287;50.984;7.022;2022-08-19T06:26:05;19.60;99.90
12446;DHT22;6287;50.984;7.022;2022-08-19T06:28:33;19.70;99.90
12446;DHT22;6287;50.984;7.022;2022-08-19T06:31:06;19.90;99.90
12446;DHT22;6287;50.984;7.022;2022-08-19T06:33:31;20.00;99.90
12446;DHT22;6287;50.984;7.022;2022-08-19T06:35:57;20.20;99.90
12446;DHT22;6287;50.984;7.022;2022-08-19T06:38:25;20.30;99.90
12446;DHT22;6287;50.984;7.022;2022-08-19T06:40:50;20.40;99.90
12446;DHT22;6287;50.984;7.022;2022-08-19T06:43:18;20.60;99.90
12446;DHT22;6287;50.984;7.022;2022-08-19T06:45:44;20.70;99.90
12446;DHT22;6287;50.984;7.022;2022-08-19T06:48:09;20.80;99.90
12446;DHT22;6287;50.984;7.022;2022-08-19T06:50:35;20.90;99.90
12446;DHT22;6287;50.984;7.022;2022-08-19T06:53:02;21.00;99.90
12446;DHT22;6287;50.984;7.022;2022-08-19T06:55:30;21.10;99.90
12446;DHT22;6287;50.984;7.022;2022-08-19T06:57:56;21.40;99.90
12446;DHT22;6287;50.984;7.022;2022-08-19T07:00:24;21.40;99.90
12446;DHT22;6287;50.984;7.022;2022-08-19T07:02:50;21.60;99.90
12446;DHT22;6287;50.984;7.022;2022-08-19T07:05:18;21.70;99.90
12446;DHT22;6287;50.984;7.022;2022-08-19T07:07:44;21.80;99.90
12446;DHT22;6287;50.984;7.022;2022-08-19T07:10:09;21.90;99.90
12446;DHT22;6287;50.984;7.022;2022-08-19T07:12:37;22.20;99.90
12446;DHT22;6287;50.984;7.022;2022-08-19T07:15:09;22.30;99.90
12446;DHT22;6287;50.984;7.022;2022-08-19T07:17:38;22.70;99.90
12446;DHT22;6287;50.984;7.022;2022-08-19T07:20:06;22.80;99.90
12446;DHT22;6287;50.984;7.022;2022-08-19T07:22:33;22.90;99.90
12446;DHT22;6287;50.984;7.022;2022-08-19T07:25:03;23.00;99.90
12446;DHT22;6287;50.984;7.022;2022-08-19T07:27:29;23.10;99.90
12446;DHT22;6287;50.984;7.022;2022-08-19T07:29:55;23.10;99.90
12446;DHT22;6287;50.984;7.022;2022-08-19T07:32:24;23.10;99.90
12446;DHT22;6287;50.984;7.022;2022-08-19T07:34:51;23.20;99.90
12446;DHT22;6287;50.984;7.022;2022-08-19T07:37:22;23.50;99.90
12446;DHT22;6287;50.984;7.022;2022-08-19T07:42:16;23.70;99.90
12446;DHT22;6287;50.984;7.022;2022-08-19T07:44:46;23.80;99.90
12446;DHT22;6287;50.984;7.022;2022-08-19T07:47:13;24.00;99.90
12446;DHT22;6287;50.984;7.022;2022-08-19T07:49:41;24.10;99.90
12446;DHT22;6287;50.984;7.022;2022-08-19T07:52:10;24.20;99.90
12446;DHT22;6287;50.984;7.022;2022-08-19T07:54:37;24.30;99.90
12446;DHT22;6287;50.984;7.022;2022-08-19T07:57:06;24.40;99.90
12446;DHT22;6287;50.984;7.022;2022-08-19T07:59:32;24.60;99.90
12446;DHT22;6287;50.984;7.022;2022-08-19T08:01:58;24.60;99.90
12446;DHT22;6287;50.984;7.022;2022-08-19T08:04:28;24.60;99.90
12446;DHT22;6287;50.984;7.022;2022-08-19T08:07:13;24.60;99.90
12446;DHT22;6287;50.984;7.022;2022-08-19T08:09:57;24.60;99.90
12446;DHT22;6287;50.984;7.022;2022-08-19T08:12:30;24.60;99.90
12446;DHT22;6287;50.984;7.022;2022-08-19T08:14:59;24.70;99.90
12446;DHT22;6287;50.984;7.022;2022-08-19T08:17:30;24.70;99.90
12446;DHT22;6287;50.984;7.022;2022-08-19T08:19:56;24.60;99.90
12446;DHT22;6287;50.984;7.022;2022-08-19T08:22:23;24.50;99.90
12446;DHT22;6287;50.984;7.022;2022-08-19T08:25:18;24.40;99.90
12446;DHT22;6287;50.984;7.022;2022-08-19T08:27:48;24.30;99.90
12446;DHT22;6287;50.984;7.022;2022-08-19T08:30:23;24.20;99.90
12446;DHT22;6287;50.984;7.022;2022-08-19T08:32:51;24.20;99.90
12446;DHT22;6287;50.984;7.022;2022-08-19T08:35:23;24.10;99.90
12446;DHT22;6287;50.984;7.022;2022-08-19T08:37:53;24.10;99.90
12446;DHT22;6287;50.984;7.022;2022-08-19T08:43:10;24.10;99.90
12446;DHT22;6287;50.984;7.022;2022-08-19T08:45:46;24.30;99.90
12446;DHT22;6287;50.984;7.022;2022-08-19T08:48:36;24.40;99.90
12446;DHT22;6287;50.984;7.022;2022-08-19T08:51:10;24.50;99.90
12446;DHT22;6287;50.984;7.022;2022-08-19T08:53:40;24.90;99.90
12446;DHT22;6287;50.984;7.022;2022-08-19T08:56:11;24.90;99.90
12446;DHT22;6287;50.984;7.022;2022-08-19T08:59:04;25.30;99.90
12446;DHT22;6287;50.984;7.022;2022-08-19T09:01:35;25.80;99.90
12446;DHT22;6287;50.984;7.022;2022-08-19T09:04:07;25.80;99.90
12446;DHT22;6287;50.984;7.022;2022-08-19T09:09:15;26.70;99.90
12446;DHT22;6287;50.984;7.022;2022-08-19T09:12:00;27.10;99.90
12446;DHT22;6287;50.984;7.022;2022-08-19T09:17:08;27.20;99.90
12446;DHT22;6287;50.984;7.022;2022-08-19T09:19:48;26.90;99.90
12446;DHT22;6287;50.984;7.022;2022-08-19T09:22:14;26.80;99.90
12446;DHT22;6287;50.984;7.022;2022-08-19T09:24:45;26.70;99.90
12446;DHT22;6287;50.984;7.022;2022-08-19T09:27:12;26.70;99.90
12446;DHT22;6287;50.984;7.022;2022-08-19T09:29:38;26.70;99.90
12446;DHT22;6287;50.984;7.022;2022-08-19T09:32:06;26.70;99.90
12446;DHT22;6287;50.984;7.022;2022-08-19T09:34:32;27.00;99.90
12446;DHT22;6287;50.984;7.022;2022-08-19T09:36:58;27.20;99.90
12446;DHT22;6287;50.984;7.022;2022-08-19T09:39:27;27.30;99.90
12446;DHT22;6287;50.984;7.022;2022-08-19T09:41:53;27.60;99.90
12446;DHT22;6287;50.984;7.022;2022-08-19T09:44:21;27.80;99.90
12446;DHT22;6287;50.984;7.022;2022-08-19T09:46:51;27.90;99.90
12446;DHT22;6287;50.984;7.022;2022-08-19T09:49:18;27.90;99.30
12446;DHT22;6287;50.984;7.022;2022-08-19T09:51:49;28.20;99.20
12446;DHT22;6287;50.984;7.022;2022-08-19T09:54:15;28.40;99.00
12446;DHT22;6287;50.984;7.022;2022-08-19T09:56:41;28.60;98.60
12446;DHT22;6287;50.984;7.022;2022-08-19T09:59:06;28.80;97.80
12446;DHT22;6287;50.984;7.022;2022-08-19T10:01:34;28.90;95.40
12446;DHT22;6287;50.984;7.022;2022-08-19T10:04:01;28.90;95.70
12446;DHT22;6287;50.984;7.022;2022-08-19T10:06:31;29.00;95.50
12446;DHT22;6287;50.984;7.022;2022-08-19T10:08:59;29.40;95.20
12446;DHT22;6287;50.984;7.022;2022-08-19T10:11:29;29.60;93.80
12446;DHT22;6287;50.984;7.022;2022-08-19T10:13:55;29.80;94.30
12446;DHT22;6287;50.984;7.022;2022-08-19T10:16:22;30.00;93.80
12446;DHT22;6287;50.984;7.022;2022-08-19T10:18:56;30.10;92.80
12446;DHT22;6287;50.984;7.022;2022-08-19T10:21:32;30.20;92.30
12446;DHT22;6287;50.984;7.022;2022-08-19T10:24:02;30.40;92.60
12446;DHT22;6287;50.984;7.022;2022-08-19T10:26:31;30.40;91.20
12446;DHT22;6287;50.984;7.022;2022-08-19T10:29:00;30.30;91.50
12446;DHT22;6287;50.984;7.022;2022-08-19T10:31:28;30.40;90.60
12446;DHT22;6287;50.984;7.022;2022-08-19T10:33:55;30.70;90.30
12446;DHT22;6287;50.984;7.022;2022-08-19T10:36:26;30.80;87.70
12446;DHT22;6287;50.984;7.022;2022-08-19T10:38:56;30.60;88.90
12446;DHT22;6287;50.984;7.022;2022-08-19T10:41:26;30.50;88.80
12446;DHT22;6287;50.984;7.022;2022-08-19T10:44:00;30.60;89.30
12446;DHT22;6287;50.984;7.022;2022-08-19T10:46:29;30.50;86.20
12446;DHT22;6287;50.984;7.022;2022-08-19T10:48:58;30.70;88.80
12446;DHT22;6287;50.984;7.022;2022-08-19T10:51:24;31.00;86.60
12446;DHT22;6287;50.984;7.022;2022-08-19T10:56:47;31.10;83.70
12446;DHT22;6287;50.984;7.022;2022-08-19T10:59:30;31.10;84.00
12446;DHT22;6287;50.984;7.022;2022-08-19T11:02:00;31.00;83.10
12446;DHT22;6287;50.984;7.022;2022-08-19T11:04:26;30.80;84.90
12446;DHT22;6287;50.984;7.022;2022-08-19T11:06:52;31.00;85.50
12446;DHT22;6287;50.984;7.022;2022-08-19T11:09:26;31.50;84.00
12446;DHT22;6287;50.984;7.022;2022-08-19T11:11:54;31.50;84.70
12446;DHT22;6287;50.984;7.022;2022-08-19T11:14:21;32.10;81.40
12446;DHT22;6287;50.984;7.022;2022-08-19T11:16:52;32.40;80.60
12446;DHT22;6287;50.984;7.022;2022-08-19T11:21:54;32.90;80.40
12446;DHT22;6287;50.984;7.022;2022-08-19T11:24:24;33.00;79.80
12446;DHT22;6287;50.984;7.022;2022-08-19T11:26:52;33.10;78.30
12446;DHT22;6287;50.984;7.022;2022-08-19T11:29:20;33.30;78.30
12446;DHT22;6287;50.984;7.022;2022-08-19T11:31:49;33.30;76.80
12446;DHT22;6287;50.984;7.022;2022-08-19T11:34:21;33.10;75.30
12446;DHT22;6287;50.984;7.022;2022-08-19T11:36:48;32.60;76.20
12446;DHT22;6287;50.984;7.022;2022-08-19T11:39:20;32.50;77.90
12446;DHT22;6287;50.984;7.022;2022-08-19T11:41:46;32.50;76.20
12446;DHT22;6287;50.984;7.022;2022-08-19T11:44:11;32.30;76.50
12446;DHT22;6287;50.984;7.022;2022-08-19T11:46:39;32.30;75.80
12446;DHT22;6287;50.984;7.022;2022-08-19T11:49:08;32.50;76.10
12446;DHT22;6287;50.984;7.022;2022-08-19T11:51:35;32.70;75.60
12446;DHT22;6287;50.984;7.022;2022-08-19T11:54:01;32.90;75.30
12446;DHT22;6287;50.984;7.022;2022-08-19T11:56:30;33.00;74.50
12446;DHT22;6287;50.984;7.022;2022-08-19T11:58:58;32.70;74.50
12446;DHT22;6287;50.984;7.022;2022-08-19T12:01:28;32.70;74.80
12446;DHT22;6287;50.984;7.022;2022-08-19T12:03:55;32.70;74.20
12446;DHT22;6287;50.984;7.022;2022-08-19T12:06:27;32.40;73.40
12446;DHT22;6287;50.984;7.022;2022-08-19T12:08:59;31.80;73.50
12446;DHT22;6287;50.984;7.022;2022-08-19T12:11:26;31.60;74.90
12446;DHT22;6287;50.984;7.022;2022-08-19T12:13:55;31.60;74.80
12446;DHT22;6287;50.984;7.022;2022-08-19T12:16:24;31.90;74.40
12446;DHT22;6287;50.984;7.022;2022-08-19T12:18:53;32.20;73.90
12446;DHT22;6287;50.984;7.022;2022-08-19T12:21:22;32.80;70.60
12446;DHT22;6287;50.984;7.022;2022-08-19T12:23:51;32.90;70.00
12446;DHT22;6287;50.984;7.022;2022-08-19T12:26:17;33.60;68.80
12446;DHT22;6287;50.984;7.022;2022-08-19T12:28:43;33.60;68.80
12446;DHT22;6287;50.984;7.022;2022-08-19T12:31:10;34.20;67.30
12446;DHT22;6287;50.984;7.022;2022-08-19T12:33:42;34.30;65.80
12446;DHT22;6287;50.984;7.022;2022-08-19T12:36:10;34.50;64.50
12446;DHT22;6287;50.984;7.022;2022-08-19T12:50:54;36.00;61.70
12446;DHT22;6287;50.984;7.022;2022-08-19T12:53:22;36.00;61.90
12446;DHT22;6287;50.984;7.022;2022-08-19T12:55:48;36.10;62.10
12446;DHT22;6287;50.984;7.022;2022-08-19T12:58:22;35.80;61.30
12446;DHT22;6287;50.984;7.022;2022-08-19T13:00:53;35.50;61.40
12446;DHT22;6287;50.984;7.022;2022-08-19T13:03:23;34.80;62.40
12446;DHT22;6287;50.984;7.022;2022-08-19T13:05:59;34.20;63.10
12446;DHT22;6287;50.984;7.022;2022-08-19T13:08:24;33.60;63.50
12446;DHT22;6287;50.984;7.022;2022-08-19T13:10:52;33.40;65.40
12446;DHT22;6287;50.984;7.022;2022-08-19T13:13:18;33.90;63.10
12446;DHT22;6287;50.984;7.022;2022-08-19T13:15:44;34.00;64.00
12446;DHT22;6287;50.984;7.022;2022-08-19T13:18:11;35.30;61.50
12446;DHT22;6287;50.984;7.022;2022-08-19T13:20:39;35.50;60.70
12446;DHT22;6287;50.984;7.022;2022-08-19T13:23:08;35.90;59.80
12446;DHT22;6287;50.984;7.022;2022-08-19T13:25:34;36.60;57.80
12446;DHT22;6287;50.984;7.022;2022-08-19T13:28:02;36.70;57.90
12446;DHT22;6287;50.984;7.022;2022-08-19T13:30:30;37.10;56.90
12446;DHT22;6287;50.984;7.022;2022-08-19T13:33:17;37.20;56.90
12446;DHT22;6287;50.984;7.022;2022-08-19T13:38:11;37.20;53.90
12446;DHT22;6287;50.984;7.022;2022-08-19T13:40:39;37.20;52.80
12446;DHT22;6287;50.984;7.022;2022-08-19T13:43:05;36.30;54.50
12446;DHT22;6287;50.984;7.022;2022-08-19T13:45:33;36.10;54.90
12446;DHT22;6287;50.984;7.022;2022-08-19T13:48:00;35.60;55.90
12446;DHT22;6287;50.984;7.022;2022-08-19T13:50:29;34.90;55.30
12446;DHT22;6287;50.984;7.022;2022-08-19T13:53:01;34.30;57.50
12446;DHT22;6287;50.984;7.022;2022-08-19T13:55:29;34.30;57.60
12446;DHT22;6287;50.984;7.022;2022-08-19T13:57:57;34.70;55.60
12446;DHT22;6287;50.984;7.022;2022-08-19T14:00:30;34.90;55.20
12446;DHT22;6287;50.984;7.022;2022-08-19T14:02:59;34.90;55.80
12446;DHT22;6287;50.984;7.022;2022-08-19T14:07:52;35.60;54.30
12446;DHT22;6287;50.984;7.022;2022-08-19T14:10:19;35.70;53.30
12446;DHT22;6287;50.984;7.022;2022-08-19T14:12:46;35.60;53.50
12446;DHT22;6287;50.984;7.022;2022-08-19T14:15:14;35.80;52.90
12446;DHT22;6287;50.984;7.022;2022-08-19T14:17:42;35.80;52.40
12446;DHT22;6287;50.984;7.022;2022-08-19T14:20:09;35.70;51.70
12446;DHT22;6287;50.984;7.022;2022-08-19T14:22:37;35.90;53.30
12446;DHT22;6287;50.984;7.022;2022-08-19T14:25:04;36.00;52.10
12446;DHT22;6287;50.984;7.022;2022-08-19T14:27:34;36.40;51.00
12446;DHT22;6287;50.984;7.022;2022-08-19T14:29:59;36.60;51.60
12446;DHT22;6287;50.984;7.022;2022-08-19T14:32:28;36.70;52.00
12446;DHT22;6287;50.984;7.022;2022-08-19T14:34:53;37.00;50.70
12446;DHT22;6287;50.984;7.022;2022-08-19T14:37:20;37.10;50.30
12446;DHT22;6287;50.984;7.022;2022-08-19T14:39:50;37.20;50.40
12446;DHT22;6287;50.984;7.022;2022-08-19T14:42:21;37.30;49.70
12446;DHT22;6287;50.984;7.022;2022-08-19T14:44:47;37.20;50.90
12446;DHT22;6287;50.984;7.022;2022-08-19T14:47:15;37.20;49.80
12446;DHT22;6287;50.984;7.022;2022-08-19T14:49:43;37.20;49.70
12446;DHT22;6287;50.984;7.022;2022-08-19T14:54:38;37.60;47.70
12446;DHT22;6287;50.984;7.022;2022-08-19T14:57:13;37.60;47.50
12446;DHT22;6287;50.984;7.022;2022-08-19T14:59:43;37.60;47.40
12446;DHT22;6287;50.984;7.022;2022-08-19T15:02:10;37.60;47.30
12446;DHT22;6287;50.984;7.022;2022-08-19T15:04:36;37.40;46.80
12446;DHT22;6287;50.984;7.022;2022-08-19T15:07:02;37.30;46.70
12446;DHT22;6287;50.984;7.022;2022-08-19T15:09:33;37.20;47.30
12446;DHT22;6287;50.984;7.022;2022-08-19T15:12:04;37.00;47.10
12446;DHT22;6287;50.984;7.022;2022-08-19T15:14:35;37.00;47.70
12446;DHT22;6287;50.984;7.022;2022-08-19T15:17:06;37.10;46.50
12446;DHT22;6287;50.984;7.022;2022-08-19T15:19:34;37.00;45.60
12446;DHT22;6287;50.984;7.022;2022-08-19T15:22:01;37.10;46.20
12446;DHT22;6287;50.984;7.022;2022-08-19T15:24:26;37.10;47.00
12446;DHT22;6287;50.984;7.022;2022-08-19T15:26:54;37.40;45.10
12446;DHT22;6287;50.984;7.022;2022-08-19T15:29:23;37.60;45.00
12446;DHT22;6287;50.984;7.022;2022-08-19T15:31:54;37.70;44.60
12446;DHT22;6287;50.984;7.022;2022-08-19T15:34:22;38.00;43.90
12446;DHT22;6287;50.984;7.022;2022-08-19T15:36:51;38.10;43.20
12446;DHT22;6287;50.984;7.022;2022-08-19T15:39:17;38.10;43.20
12446;DHT22;6287;50.984;7.022;2022-08-19T15:41:46;38.10;42.90
12446;DHT22;6287;50.984;7.022;2022-08-19T15:44:15;37.80;43.20
12446;DHT22;6287;50.984;7.022;2022-08-19T15:46:44;37.70;42.90
12446;DHT22;6287;50.984;7.022;2022-08-19T15:49:13;36.80;44.40
12446;DHT22;6287;50.984;7.022;2022-08-19T15:51:44;35.50;45.50
12446;DHT22;6287;50.984;7.022;2022-08-19T15:54:12;34.50;47.00
12446;DHT22;6287;50.984;7.022;2022-08-19T15:56:41;34.50;48.20
12446;DHT22;6287;50.984;7.022;2022-08-19T15:59:28;33.90;48.80
12446;DHT22;6287;50.984;7.022;2022-08-19T16:04:57;32.50;50.90
12446;DHT22;6287;50.984;7.022;2022-08-19T16:07:42;32.50;51.40
12446;DHT22;6287;50.984;7.022;2022-08-19T16:15:00;32.20;52.20
12446;DHT22;6287;50.984;7.022;2022-08-19T16:19:57;31.20;54.50
12446;DHT22;6287;50.984;7.022;2022-08-19T16:22:29;31.20;55.00
12446;DHT22;6287;50.984;7.022;2022-08-19T16:24:55;30.70;56.30
12446;DHT22;6287;50.984;7.022;2022-08-19T16:27:21;30.70;57.30
12446;DHT22;6287;50.984;7.022;2022-08-19T16:29:47;30.60;58.00
12446;DHT22;6287;50.984;7.022;2022-08-19T16:32:12;30.50;58.30
12446;DHT22;6287;50.984;7.022;2022-08-19T16:34:42;30.30;59.20
12446;DHT22;6287;50.984;7.022;2022-08-19T16:37:10;30.00;60.50
12446;DHT22;6287;50.984;7.022;2022-08-19T16:39:39;29.90;61.20
12446;DHT22;6287;50.984;7.022;2022-08-19T16:42:08;29.80;61.00
12446;DHT22;6287;50.984;7.022;2022-08-19T16:44:40;29.50;61.30
12446;DHT22;6287;50.984;7.022;2022-08-19T16:47:06;29.30;62.40
12446;DHT22;6287;50.984;7.022;2022-08-19T16:49:32;29.00;63.20
12446;DHT22;6287;50.984;7.022;2022-08-19T16:51:58;28.60;63.90